Flight Track Log - Related Links

Times and Time Zones

All times are in EST time to prevent confusion due to time zone crossing. See the CDG4711 flight status page for this flight to view local times or setup timezone preferences in your user account.

Time Position Orientation Groundspeed Altitude Reporting Facility
EST Latitude Longitude Course Direction KTS MPH feet Rate Location/Type
Sun 06:30:00 PM 35.6095 120.1751 194° South  Level Estimated
Sun 06:31:00 PM 35.5289 120.1508 194° South  Level Estimated
Sun 06:32:00 PM 35.4484 120.1267 194° South  Level Estimated
Sun 06:33:00 PM 35.3678 120.1025 194° South  Level Estimated
Sun 06:34:00 PM 35.2872 120.0785 194° South  Level Estimated
Sun 06:35:00 PM 35.2067 120.0544 194° South  Level Estimated
Sun 06:36:00 PM 35.1261 120.0304 194° South  Level Estimated
Sun 06:37:00 PM 35.0455 120.0065 194° South  Level Estimated
Sun 06:38:00 PM 34.9649 119.9826 194° South  Level Estimated
Sun 06:39:00 PM 34.8843 119.9588 194° South  Level Estimated
Sun 06:40:00 PM 34.8037 119.9350 194° South  Level Estimated
Sun 06:41:00 PM 34.7231 119.9112 194° South  Level Estimated
Sun 06:42:00 PM 34.6425 119.8875 194° South  Level Estimated
Sun 06:43:00 PM 34.5619 119.8639 194° South  Level Estimated
Sun 06:44:00 PM 34.4813 119.8402 194° South  Level Estimated
Sun 06:45:00 PM 34.4007 119.8167 194° South  Level Estimated
Sun 06:46:00 PM 34.3201 119.7932 194° South  Level Estimated
Sun 06:47:00 PM 34.2394 119.7697 194° South  Level Estimated
Sun 06:48:00 PM 34.1588 119.7462 194° South  Level Estimated
Sun 06:49:00 PM 34.0782 119.7229 194° South  Level Estimated
Sun 06:50:00 PM 33.9975 119.6995 193° South  Level Estimated
Sun 06:51:00 PM 33.9169 119.6762 193° South  Level Estimated
Sun 06:52:00 PM 33.8363 119.6530 193° South  Level Estimated
Sun 06:53:00 PM 33.7556 119.6298 193° South  Level Estimated
Sun 06:54:00 PM 33.6749 119.6066 193° South  Level Estimated
Sun 06:55:00 PM 33.5943 119.5835 193° South  Level Estimated
Sun 06:56:00 PM 33.5136 119.5604 193° South  Level Estimated
Sun 06:57:00 PM 33.4329 119.5374 193° South  Level Estimated
Sun 06:58:00 PM 33.3523 119.5144 193° South  Level Estimated
Sun 06:59:00 PM 33.2716 119.4914 193° South  Level Estimated
Sun 07:00:00 PM 33.1909 119.4685 193° South  Level Estimated
Sun 07:01:00 PM 33.1102 119.4456 193° South  Level Estimated
Sun 07:02:00 PM 33.0295 119.4228 193° South  Level Estimated
Sun 07:03:00 PM 32.9488 119.4000 193° South  Level Estimated
Sun 07:04:00 PM 32.8681 119.3773 193° South  Level Estimated
Sun 07:05:00 PM 32.7874 119.3546 193° South  Level Estimated
Sun 07:06:00 PM 32.7067 119.3319 193° South  Level Estimated
Sun 07:07:00 PM 32.6260 119.3093 193° South  Level Estimated
Sun 07:08:00 PM 32.5453 119.2867 193° South  Level Estimated
Sun 07:09:00 PM 32.4646 119.2642 193° South  Level Estimated
Sun 07:10:00 PM 32.3839 119.2417 193° South  Level Estimated
Sun 07:11:00 PM 32.3031 119.2192 193° South  Level Estimated
Sun 07:12:00 PM 32.2224 119.1968 193° South  Level Estimated
Sun 07:13:00 PM 32.1417 119.1745 193° South  Level Estimated
Sun 07:14:00 PM 32.0609 119.1521 193° South  Level Estimated
Sun 07:15:00 PM 31.9802 119.1298 193° South  Level Estimated
Sun 07:16:00 PM 31.8994 119.1076 193° South  Level Estimated
Sun 07:17:00 PM 31.8187 119.0853 193° South  Level Estimated
Sun 07:18:00 PM 31.7379 119.0631 193° South  Level Estimated
Sun 07:19:00 PM 31.6572 119.0410 193° South  Level Estimated
Sun 07:20:00 PM 31.5764 119.0189 193° South  Level Estimated
Sun 07:21:00 PM 31.4956 118.9968 193° South  Level Estimated
Sun 07:22:00 PM 31.4149 118.9748 193° South  Level Estimated
Sun 07:23:00 PM 31.3341 118.9528 193° South  Level Estimated
Sun 07:24:00 PM 31.2533 118.9309 193° South  Level Estimated
Sun 07:25:00 PM 31.1725 118.9090 193° South  Level Estimated
Sun 07:26:00 PM 31.0917 118.8871 193° South  Level Estimated
Sun 07:27:00 PM 31.0109 118.8652 193° South  Level Estimated
Sun 07:28:00 PM 30.9301 118.8435 193° South  Level Estimated
Sun 07:29:00 PM 30.8493 118.8217 193° South  Level Estimated
Sun 07:30:00 PM 30.7686 118.8000 193° South  Level Estimated
Sun 07:31:00 PM 30.6877 118.7783 193° South  Level Estimated
Sun 07:32:00 PM 30.6069 118.7566 193° South  Level Estimated
Sun 07:33:00 PM 30.5261 118.7350 193° South  Level Estimated
Sun 07:34:00 PM 30.4453 118.7134 193° South  Level Estimated
Sun 07:35:00 PM 30.3645 118.6919 193° South  Level Estimated
Sun 07:36:00 PM 30.2837 118.6704 193° South  Level Estimated
Sun 07:37:00 PM 30.2029 118.6489 193° South  Level Estimated
Sun 07:38:00 PM 30.1220 118.6274 193° South  Level Estimated
Sun 07:39:00 PM 30.0412 118.6060 193° South  Level Estimated
Sun 07:40:00 PM 29.9604 118.5847 193° South  Level Estimated
Sun 07:41:00 PM 29.8795 118.5633 193° South  Level Estimated
Sun 07:42:00 PM 29.7987 118.5420 193° South  Level Estimated
Sun 07:43:00 PM 29.7178 118.5208 193° South  Level Estimated
Sun 07:44:00 PM 29.6370 118.4995 193° South  Level Estimated
Sun 07:45:00 PM 29.5561 118.4783 193° South  Level Estimated
Sun 07:46:00 PM 29.4753 118.4572 193° South  Level Estimated
Sun 07:47:00 PM 29.3944 118.4360 193° South  Level Estimated
Sun 07:48:00 PM 29.3135 118.4149 193° South  Level Estimated
Sun 07:49:00 PM 29.2327 118.3939 193° South  Level Estimated
Sun 07:50:00 PM 29.1518 118.3728 193° South  Level Estimated
Sun 07:51:00 PM 29.0709 118.3518 193° South  Level Estimated
Sun 07:52:00 PM 28.9900 118.3309 193° South  Level Estimated
Sun 07:53:00 PM 28.9092 118.3100 193° South  Level Estimated
Sun 07:54:00 PM 28.8283 118.2890 193° South  Level Estimated
Sun 07:55:00 PM 28.7474 118.2682 193° South  Level Estimated
Sun 07:56:00 PM 28.6665 118.2473 193° South  Level Estimated
Sun 07:57:00 PM 28.5856 118.2265 193° South  Level Estimated
Sun 07:58:00 PM 28.5047 118.2058 193° South  Level Estimated
Sun 07:59:00 PM 28.4238 118.1850 193° South  Level Estimated
Sun 08:00:00 PM 28.3429 118.1643 193° South  Level Estimated
Sun 08:01:00 PM 28.2620 118.1436 193° South  Level Estimated
Sun 08:02:00 PM 28.1811 118.1230 193° South  Level Estimated
Sun 08:03:00 PM 28.1002 118.1024 193° South  Level Estimated
Sun 08:04:00 PM 28.0193 118.0818 193° South  Level Estimated
Sun 08:05:00 PM 27.9384 118.0613 193° South  Level Estimated
Sun 08:06:00 PM 27.8575 118.0407 193° South  Level Estimated
Sun 08:07:00 PM 27.7765 118.0202 193° South  Level Estimated
Sun 08:08:00 PM 27.7019 118.0014 193° South  Level Estimated
Sun 08:09:00 PM 27.7019 118.0014 348° North  Level Estimated
Sun 08:10:00 PM 27.7019 118.0014 348° North  Level Estimated
Sun 08:11:00 PM 27.7019 118.0014 348° North  Level Estimated
Sun 08:12:00 PM 27.7019 118.0014 348° North  Level Estimated
Sun 08:13:00 PM 27.7019 118.0014 348° North  Level Estimated
Sun 08:14:00 PM 27.7019 118.0014 348° North  Level Estimated
Sun 08:15:00 PM 27.7019 118.0014 348° North  Level Estimated
Sun 08:16:00 PM 27.7019 118.0014 348° North  Level Estimated
Sun 08:17:00 PM 27.7019 118.0014 348° North  Level Estimated
Sun 08:18:00 PM 27.7019 118.0014 348° North  Level Estimated
Sun 08:19:00 PM 27.7019 118.0014 348° North  Level Estimated
Sun 08:20:00 PM 27.7019 118.0014 348° North  Level Estimated
Sun 08:21:00 PM 27.7019 118.0014 348° North  Level Estimated
Sun 08:22:00 PM 27.7019 118.0014 348° North  Level Estimated
Sun 08:23:00 PM 27.7019 118.0014 348° North  Level Estimated

Login

Don't have an account? Register now (free) for customized features, flight alerts, and more!